sensor_id;sensor_type;location;lat;lon;timestamp;P1;durP1;ratioP1;P2;durP2;ratioP2
19221;SDS011;9745;50.828;4.378;2023-04-10T00:00:15;8.20;;;5.33;;
19221;SDS011;9745;50.828;4.378;2023-04-10T00:02:41;7.77;;;5.27;;
19221;SDS011;9745;50.828;4.378;2023-04-10T00:05:08;6.60;;;4.83;;
19221;SDS011;9745;50.828;4.378;2023-04-10T00:07:34;10.00;;;5.73;;
19221;SDS011;9745;50.828;4.378;2023-04-10T00:10:00;8.33;;;5.50;;
19221;SDS011;9745;50.828;4.378;2023-04-10T00:12:26;9.13;;;5.80;;
19221;SDS011;9745;50.828;4.378;2023-04-10T00:14:52;7.90;;;5.43;;
19221;SDS011;9745;50.828;4.378;2023-04-10T00:17:18;7.43;;;5.07;;
19221;SDS011;9745;50.828;4.378;2023-04-10T00:19:44;9.30;;;5.87;;
19221;SDS011;9745;50.828;4.378;2023-04-10T00:22:10;10.70;;;5.93;;
19221;SDS011;9745;50.828;4.378;2023-04-10T00:24:37;9.63;;;7.10;;
19221;SDS011;9745;50.828;4.378;2023-04-10T00:27:02;9.30;;;6.03;;
19221;SDS011;9745;50.828;4.378;2023-04-10T00:29:28;8.20;;;5.80;;
19221;SDS011;9745;50.828;4.378;2023-04-10T00:31:55;8.63;;;6.07;;
19221;SDS011;9745;50.828;4.378;2023-04-10T00:34:20;10.63;;;6.60;;
19221;SDS011;9745;50.828;4.378;2023-04-10T00:36:46;8.40;;;5.90;;
19221;SDS011;9745;50.828;4.378;2023-04-10T00:39:12;10.00;;;7.03;;
19221;SDS011;9745;50.828;4.378;2023-04-10T00:41:38;9.63;;;6.33;;
19221;SDS011;9745;50.828;4.378;2023-04-10T00:44:04;11.03;;;6.20;;
19221;SDS011;9745;50.828;4.378;2023-04-10T00:46:31;10.80;;;6.03;;
19221;SDS011;9745;50.828;4.378;2023-04-10T00:48:57;9.93;;;6.03;;
19221;SDS011;9745;50.828;4.378;2023-04-10T00:51:23;8.97;;;5.83;;
19221;SDS011;9745;50.828;4.378;2023-04-10T00:53:52;8.67;;;5.63;;
19221;SDS011;9745;50.828;4.378;2023-04-10T00:56:18;10.97;;;6.47;;
19221;SDS011;9745;50.828;4.378;2023-04-10T00:58:45;8.83;;;5.43;;
19221;SDS011;9745;50.828;4.378;2023-04-10T01:01:11;9.60;;;5.83;;
19221;SDS011;9745;50.828;4.378;2023-04-10T01:03:38;9.37;;;6.37;;
19221;SDS011;9745;50.828;4.378;2023-04-10T01:08:52;10.60;;;6.40;;
19221;SDS011;9745;50.828;4.378;2023-04-10T01:16:45;10.90;;;6.73;;
19221;SDS011;9745;50.828;4.378;2023-04-10T01:19:25;9.10;;;5.70;;
19221;SDS011;9745;50.828;4.378;2023-04-10T01:21:55;9.13;;;5.87;;
19221;SDS011;9745;50.828;4.378;2023-04-10T01:29:24;10.17;;;5.30;;
19221;SDS011;9745;50.828;4.378;2023-04-10T01:31:55;8.43;;;6.00;;
19221;SDS011;9745;50.828;4.378;2023-04-10T01:34:24;6.43;;;5.03;;
19221;SDS011;9745;50.828;4.378;2023-04-10T01:36:54;7.67;;;5.27;;
19221;SDS011;9745;50.828;4.378;2023-04-10T01:39:20;7.97;;;4.90;;
19221;SDS011;9745;50.828;4.378;2023-04-10T01:41:48;6.17;;;4.67;;
19221;SDS011;9745;50.828;4.378;2023-04-10T01:44:16;8.67;;;5.27;;
19221;SDS011;9745;50.828;4.378;2023-04-10T01:46:42;7.10;;;5.03;;
19221;SDS011;9745;50.828;4.378;2023-04-10T01:49:09;10.47;;;5.23;;
19221;SDS011;9745;50.828;4.378;2023-04-10T01:51:35;8.37;;;5.00;;
19221;SDS011;9745;50.828;4.378;2023-04-10T01:54:02;7.87;;;5.20;;
19221;SDS011;9745;50.828;4.378;2023-04-10T01:56:28;7.27;;;4.57;;
19221;SDS011;9745;50.828;4.378;2023-04-10T01:58:55;7.77;;;4.90;;
19221;SDS011;9745;50.828;4.378;2023-04-10T02:01:21;6.73;;;4.83;;
19221;SDS011;9745;50.828;4.378;2023-04-10T02:03:47;6.67;;;5.03;;
19221;SDS011;9745;50.828;4.378;2023-04-10T02:09:17;6.93;;;4.70;;
19221;SDS011;9745;50.828;4.378;2023-04-10T02:11:50;7.03;;;4.53;;
19221;SDS011;9745;50.828;4.378;2023-04-10T02:14:21;5.93;;;4.90;;
19221;SDS011;9745;50.828;4.378;2023-04-10T02:16:48;8.23;;;5.27;;
19221;SDS011;9745;50.828;4.378;2023-04-10T02:19:15;8.30;;;4.77;;
19221;SDS011;9745;50.828;4.378;2023-04-10T02:21:42;8.17;;;5.37;;
19221;SDS011;9745;50.828;4.378;2023-04-10T02:24:08;5.80;;;4.30;;
19221;SDS011;9745;50.828;4.378;2023-04-10T02:26:44;6.20;;;4.47;;
19221;SDS011;9745;50.828;4.378;2023-04-10T02:29:10;6.30;;;4.63;;
19221;SDS011;9745;50.828;4.378;2023-04-10T02:31:36;5.93;;;4.20;;
19221;SDS011;9745;50.828;4.378;2023-04-10T02:34:02;5.00;;;3.80;;
19221;SDS011;9745;50.828;4.378;2023-04-10T02:36:28;6.60;;;4.27;;
19221;SDS011;9745;50.828;4.378;2023-04-10T02:38:54;6.97;;;4.73;;
19221;SDS011;9745;50.828;4.378;2023-04-10T02:41:20;6.57;;;4.50;;
19221;SDS011;9745;50.828;4.378;2023-04-10T02:43:46;6.57;;;4.10;;
19221;SDS011;9745;50.828;4.378;2023-04-10T02:46:12;5.80;;;4.10;;
19221;SDS011;9745;50.828;4.378;2023-04-10T02:48:38;5.63;;;4.33;;
19221;SDS011;9745;50.828;4.378;2023-04-10T02:51:04;6.27;;;4.70;;
19221;SDS011;9745;50.828;4.378;2023-04-10T02:53:31;6.50;;;4.83;;
19221;SDS011;9745;50.828;4.378;2023-04-10T02:55:57;5.40;;;4.30;;
19221;SDS011;9745;50.828;4.378;2023-04-10T02:58:23;6.37;;;4.33;;
19221;SDS011;9745;50.828;4.378;2023-04-10T03:00:49;5.43;;;4.27;;
19221;SDS011;9745;50.828;4.378;2023-04-10T03:03:17;5.80;;;4.03;;
19221;SDS011;9745;50.828;4.378;2023-04-10T03:05:43;5.83;;;4.13;;
19221;SDS011;9745;50.828;4.378;2023-04-10T03:08:11;5.77;;;4.13;;
19221;SDS011;9745;50.828;4.378;2023-04-10T03:10:37;5.30;;;4.33;;
19221;SDS011;9745;50.828;4.378;2023-04-10T03:13:03;5.90;;;4.33;;
19221;SDS011;9745;50.828;4.378;2023-04-10T03:15:29;6.60;;;4.43;;
19221;SDS011;9745;50.828;4.378;2023-04-10T03:17:56;5.90;;;4.13;;
19221;SDS011;9745;50.828;4.378;2023-04-10T03:20:22;5.60;;;4.37;;
19221;SDS011;9745;50.828;4.378;2023-04-10T03:22:48;4.20;;;3.77;;
19221;SDS011;9745;50.828;4.378;2023-04-10T03:25:14;7.70;;;4.30;;
19221;SDS011;9745;50.828;4.378;2023-04-10T03:27:40;6.43;;;4.17;;
19221;SDS011;9745;50.828;4.378;2023-04-10T03:30:07;5.53;;;4.00;;
19221;SDS011;9745;50.828;4.378;2023-04-10T03:32:33;8.17;;;4.77;;
19221;SDS011;9745;50.828;4.378;2023-04-10T03:34:59;5.33;;;3.80;;
19221;SDS011;9745;50.828;4.378;2023-04-10T03:37:25;7.67;;;4.00;;
19221;SDS011;9745;50.828;4.378;2023-04-10T03:39:51;5.33;;;4.17;;
19221;SDS011;9745;50.828;4.378;2023-04-10T03:42:17;6.23;;;4.23;;
19221;SDS011;9745;50.828;4.378;2023-04-10T03:44:43;6.37;;;4.47;;
19221;SDS011;9745;50.828;4.378;2023-04-10T03:47:09;6.33;;;4.27;;
19221;SDS011;9745;50.828;4.378;2023-04-10T03:49:36;6.10;;;3.97;;
19221;SDS011;9745;50.828;4.378;2023-04-10T03:52:02;6.53;;;3.90;;
19221;SDS011;9745;50.828;4.378;2023-04-10T03:54:28;7.03;;;4.13;;
19221;SDS011;9745;50.828;4.378;2023-04-10T03:56:54;6.23;;;4.03;;
19221;SDS011;9745;50.828;4.378;2023-04-10T03:59:20;6.13;;;3.83;;
19221;SDS011;9745;50.828;4.378;2023-04-10T04:01:46;6.07;;;4.33;;
19221;SDS011;9745;50.828;4.378;2023-04-10T04:04:12;7.77;;;4.97;;
19221;SDS011;9745;50.828;4.378;2023-04-10T04:06:38;6.83;;;4.20;;
19221;SDS011;9745;50.828;4.378;2023-04-10T04:09:04;7.70;;;4.53;;
19221;SDS011;9745;50.828;4.378;2023-04-10T04:11:30;9.37;;;4.10;;
19221;SDS011;9745;50.828;4.378;2023-04-10T04:13:56;6.17;;;4.10;;
19221;SDS011;9745;50.828;4.378;2023-04-10T04:16:22;6.40;;;4.10;;
19221;SDS011;9745;50.828;4.378;2023-04-10T04:18:48;6.53;;;4.67;;
19221;SDS011;9745;50.828;4.378;2023-04-10T04:21:14;6.53;;;4.53;;
19221;SDS011;9745;50.828;4.378;2023-04-10T04:23:40;6.07;;;4.03;;
19221;SDS011;9745;50.828;4.378;2023-04-10T04:26:07;6.73;;;4.30;;
19221;SDS011;9745;50.828;4.378;2023-04-10T04:28:33;6.93;;;4.37;;
19221;SDS011;9745;50.828;4.378;2023-04-10T04:30:59;6.60;;;4.50;;
19221;SDS011;9745;50.828;4.378;2023-04-10T04:33:25;8.13;;;4.23;;
19221;SDS011;9745;50.828;4.378;2023-04-10T04:35:51;6.43;;;4.60;;
19221;SDS011;9745;50.828;4.378;2023-04-10T04:38:17;5.40;;;4.13;;
19221;SDS011;9745;50.828;4.378;2023-04-10T04:40:44;5.90;;;4.20;;
19221;SDS011;9745;50.828;4.378;2023-04-10T04:43:10;5.33;;;4.20;;
19221;SDS011;9745;50.828;4.378;2023-04-10T04:45:36;7.80;;;4.90;;
19221;SDS011;9745;50.828;4.378;2023-04-10T04:48:02;6.57;;;4.23;;
19221;SDS011;9745;50.828;4.378;2023-04-10T04:50:28;5.80;;;4.50;;
19221;SDS011;9745;50.828;4.378;2023-04-10T04:52:54;5.73;;;4.33;;
19221;SDS011;9745;50.828;4.378;2023-04-10T04:55:20;9.07;;;4.57;;
19221;SDS011;9745;50.828;4.378;2023-04-10T04:57:46;5.80;;;4.30;;
19221;SDS011;9745;50.828;4.378;2023-04-10T05:00:12;6.93;;;4.43;;
19221;SDS011;9745;50.828;4.378;2023-04-10T05:02:38;6.77;;;4.10;;
19221;SDS011;9745;50.828;4.378;2023-04-10T05:05:04;7.07;;;4.87;;
19221;SDS011;9745;50.828;4.378;2023-04-10T05:07:30;5.70;;;4.33;;
19221;SDS011;9745;50.828;4.378;2023-04-10T05:09:57;8.50;;;4.60;;
19221;SDS011;9745;50.828;4.378;2023-04-10T05:12:23;6.47;;;4.60;;
19221;SDS011;9745;50.828;4.378;2023-04-10T05:14:49;7.10;;;4.53;;
19221;SDS011;9745;50.828;4.378;2023-04-10T05:17:15;8.77;;;4.00;;
19221;SDS011;9745;50.828;4.378;2023-04-10T05:19:41;8.13;;;4.27;;
19221;SDS011;9745;50.828;4.378;2023-04-10T05:22:07;5.33;;;4.10;;
19221;SDS011;9745;50.828;4.378;2023-04-10T05:24:33;5.23;;;4.50;;
19221;SDS011;9745;50.828;4.378;2023-04-10T05:26:59;7.90;;;4.23;;
19221;SDS011;9745;50.828;4.378;2023-04-10T05:29:26;8.13;;;4.23;;
19221;SDS011;9745;50.828;4.378;2023-04-10T05:31:52;5.47;;;4.37;;
19221;SDS011;9745;50.828;4.378;2023-04-10T05:34:18;4.40;;;3.53;;
19221;SDS011;9745;50.828;4.378;2023-04-10T05:36:44;5.23;;;4.10;;
19221;SDS011;9745;50.828;4.378;2023-04-10T05:39:10;5.13;;;3.90;;
19221;SDS011;9745;50.828;4.378;2023-04-10T05:41:37;6.50;;;4.00;;
19221;SDS011;9745;50.828;4.378;2023-04-10T05:44:03;5.50;;;3.87;;
19221;SDS011;9745;50.828;4.378;2023-04-10T05:46:29;8.47;;;3.97;;
19221;SDS011;9745;50.828;4.378;2023-04-10T05:48:55;6.30;;;4.73;;
19221;SDS011;9745;50.828;4.378;2023-04-10T05:51:21;5.40;;;4.00;;
19221;SDS011;9745;50.828;4.378;2023-04-10T05:53:47;7.83;;;4.47;;
19221;SDS011;9745;50.828;4.378;2023-04-10T05:56:13;6.57;;;4.17;;
19221;SDS011;9745;50.828;4.378;2023-04-10T05:58:39;5.73;;;3.80;;
19221;SDS011;9745;50.828;4.378;2023-04-10T06:01:05;6.23;;;4.07;;
19221;SDS011;9745;50.828;4.378;2023-04-10T06:03:31;5.23;;;4.30;;
19221;SDS011;9745;50.828;4.378;2023-04-10T06:05:58;6.43;;;4.43;;
19221;SDS011;9745;50.828;4.378;2023-04-10T06:08:25;5.90;;;4.37;;
19221;SDS011;9745;50.828;4.378;2023-04-10T06:10:51;5.80;;;4.00;;
19221;SDS011;9745;50.828;4.378;2023-04-10T06:13:17;5.90;;;3.93;;
19221;SDS011;9745;50.828;4.378;2023-04-10T06:15:43;5.13;;;3.87;;
19221;SDS011;9745;50.828;4.378;2023-04-10T06:18:09;5.27;;;3.80;;
19221;SDS011;9745;50.828;4.378;2023-04-10T06:20:35;4.67;;;3.67;;
19221;SDS011;9745;50.828;4.378;2023-04-10T06:23:01;5.33;;;4.10;;
19221;SDS011;9745;50.828;4.378;2023-04-10T06:25:27;6.63;;;4.27;;
19221;SDS011;9745;50.828;4.378;2023-04-10T06:27:53;5.87;;;4.17;;
19221;SDS011;9745;50.828;4.378;2023-04-10T06:30:19;7.63;;;4.30;;
19221;SDS011;9745;50.828;4.378;2023-04-10T06:32:45;6.47;;;4.17;;
19221;SDS011;9745;50.828;4.378;2023-04-10T06:35:11;8.37;;;4.17;;
19221;SDS011;9745;50.828;4.378;2023-04-10T06:37:37;6.43;;;4.33;;
19221;SDS011;9745;50.828;4.378;2023-04-10T06:40:05;5.03;;;4.07;;
19221;SDS011;9745;50.828;4.378;2023-04-10T06:42:31;6.00;;;3.73;;
19221;SDS011;9745;50.828;4.378;2023-04-10T06:44:57;6.13;;;3.93;;
19221;SDS011;9745;50.828;4.378;2023-04-10T06:47:23;5.93;;;4.10;;
19221;SDS011;9745;50.828;4.378;2023-04-10T06:49:49;6.73;;;3.67;;
19221;SDS011;9745;50.828;4.378;2023-04-10T06:52:15;5.70;;;4.43;;
19221;SDS011;9745;50.828;4.378;2023-04-10T06:54:41;6.27;;;4.13;;
19221;SDS011;9745;50.828;4.378;2023-04-10T06:57:08;7.10;;;4.37;;
19221;SDS011;9745;50.828;4.378;2023-04-10T06:59:34;5.50;;;4.07;;
19221;SDS011;9745;50.828;4.378;2023-04-10T07:02:01;5.00;;;4.07;;
19221;SDS011;9745;50.828;4.378;2023-04-10T07:04:28;6.33;;;4.30;;
19221;SDS011;9745;50.828;4.378;2023-04-10T07:06:54;6.67;;;4.27;;
19221;SDS011;9745;50.828;4.378;2023-04-10T07:09:20;7.27;;;4.50;;
19221;SDS011;9745;50.828;4.378;2023-04-10T07:11:46;6.07;;;4.30;;
19221;SDS011;9745;50.828;4.378;2023-04-10T07:14:12;9.60;;;4.10;;
19221;SDS011;9745;50.828;4.378;2023-04-10T07:16:38;7.70;;;4.03;;
19221;SDS011;9745;50.828;4.378;2023-04-10T07:19:04;5.13;;;3.80;;
19221;SDS011;9745;50.828;4.378;2023-04-10T07:21:30;8.27;;;4.60;;
19221;SDS011;9745;50.828;4.378;2023-04-10T07:23:57;6.30;;;3.90;;
19221;SDS011;9745;50.828;4.378;2023-04-10T07:26:23;4.97;;;3.70;;
19221;SDS011;9745;50.828;4.378;2023-04-10T07:28:49;8.13;;;3.97;;
19221;SDS011;9745;50.828;4.378;2023-04-10T07:31:15;5.87;;;4.00;;
19221;SDS011;9745;50.828;4.378;2023-04-10T07:33:42;6.63;;;4.30;;
19221;SDS011;9745;50.828;4.378;2023-04-10T07:36:08;6.10;;;4.17;;
19221;SDS011;9745;50.828;4.378;2023-04-10T07:38:34;5.37;;;4.33;;
19221;SDS011;9745;50.828;4.378;2023-04-10T07:41:01;6.73;;;4.40;;
19221;SDS011;9745;50.828;4.378;2023-04-10T07:43:27;6.40;;;4.20;;
19221;SDS011;9745;50.828;4.378;2023-04-10T07:45:54;7.50;;;4.50;;
19221;SDS011;9745;50.828;4.378;2023-04-10T07:48:20;5.77;;;4.17;;
19221;SDS011;9745;50.828;4.378;2023-04-10T07:50:46;5.03;;;4.03;;
19221;SDS011;9745;50.828;4.378;2023-04-10T07:53:12;4.87;;;3.90;;
19221;SDS011;9745;50.828;4.378;2023-04-10T07:55:42;6.53;;;4.13;;
19221;SDS011;9745;50.828;4.378;2023-04-10T07:58:08;6.20;;;4.20;;
19221;SDS011;9745;50.828;4.378;2023-04-10T08:00:34;5.70;;;4.20;;
19221;SDS011;9745;50.828;4.378;2023-04-10T08:03:00;6.23;;;3.87;;
19221;SDS011;9745;50.828;4.378;2023-04-10T08:05:26;5.43;;;4.27;;
19221;SDS011;9745;50.828;4.378;2023-04-10T08:07:52;6.07;;;3.67;;
19221;SDS011;9745;50.828;4.378;2023-04-10T08:10:18;8.17;;;4.60;;
19221;SDS011;9745;50.828;4.378;2023-04-10T08:12:44;7.50;;;4.10;;
19221;SDS011;9745;50.828;4.378;2023-04-10T08:15:10;5.67;;;4.13;;
19221;SDS011;9745;50.828;4.378;2023-04-10T08:17:36;6.77;;;4.20;;
19221;SDS011;9745;50.828;4.378;2023-04-10T08:20:02;6.03;;;4.10;;
19221;SDS011;9745;50.828;4.378;2023-04-10T08:22:29;5.67;;;4.03;;
19221;SDS011;9745;50.828;4.378;2023-04-10T08:24:55;5.57;;;4.40;;
19221;SDS011;9745;50.828;4.378;2023-04-10T08:27:21;6.87;;;4.50;;
19221;SDS011;9745;50.828;4.378;2023-04-10T08:29:47;5.90;;;4.00;;
19221;SDS011;9745;50.828;4.378;2023-04-10T08:32:13;7.17;;;4.50;;
19221;SDS011;9745;50.828;4.378;2023-04-10T08:34:39;5.13;;;3.70;;
19221;SDS011;9745;50.828;4.378;2023-04-10T08:37:05;6.47;;;4.43;;
19221;SDS011;9745;50.828;4.378;2023-04-10T08:39:36;5.53;;;4.20;;
19221;SDS011;9745;50.828;4.378;2023-04-10T08:42:02;5.57;;;4.07;;
19221;SDS011;9745;50.828;4.378;2023-04-10T08:44:28;5.33;;;3.90;;
19221;SDS011;9745;50.828;4.378;2023-04-10T08:46:56;6.70;;;4.17;;
19221;SDS011;9745;50.828;4.378;2023-04-10T08:49:23;6.47;;;4.30;;
19221;SDS011;9745;50.828;4.378;2023-04-10T08:51:55;5.97;;;3.90;;
19221;SDS011;9745;50.828;4.378;2023-04-10T08:54:24;6.23;;;4.20;;
19221;SDS011;9745;50.828;4.378;2023-04-10T08:56:51;5.47;;;4.00;;
19221;SDS011;9745;50.828;4.378;2023-04-10T08:59:18;5.60;;;4.10;;
19221;SDS011;9745;50.828;4.378;2023-04-10T09:01:44;8.10;;;3.80;;
19221;SDS011;9745;50.828;4.378;2023-04-10T09:04:11;5.87;;;3.87;;
19221;SDS011;9745;50.828;4.378;2023-04-10T09:06:37;5.77;;;4.03;;
19221;SDS011;9745;50.828;4.378;2023-04-10T09:09:06;6.07;;;3.97;;
19221;SDS011;9745;50.828;4.378;2023-04-10T09:14:20;4.93;;;4.20;;
19221;SDS011;9745;50.828;4.378;2023-04-10T09:16:46;6.13;;;4.00;;
19221;SDS011;9745;50.828;4.378;2023-04-10T09:19:13;8.03;;;4.40;;
19221;SDS011;9745;50.828;4.378;2023-04-10T09:21:48;8.97;;;4.20;;
19221;SDS011;9745;50.828;4.378;2023-04-10T09:24:14;8.97;;;4.20;;
19221;SDS011;9745;50.828;4.378;2023-04-10T09:26:40;9.13;;;4.67;;
19221;SDS011;9745;50.828;4.378;2023-04-10T09:29:06;7.80;;;4.67;;
19221;SDS011;9745;50.828;4.378;2023-04-10T09:31:35;9.33;;;4.50;;
19221;SDS011;9745;50.828;4.378;2023-04-10T09:34:08;9.07;;;4.97;;
19221;SDS011;9745;50.828;4.378;2023-04-10T09:36:34;7.87;;;4.70;;
19221;SDS011;9745;50.828;4.378;2023-04-10T09:39:01;7.17;;;4.33;;
19221;SDS011;9745;50.828;4.378;2023-04-10T09:41:27;7.53;;;5.03;;
19221;SDS011;9745;50.828;4.378;2023-04-10T09:44:06;9.20;;;5.13;;
19221;SDS011;9745;50.828;4.378;2023-04-10T09:46:32;10.63;;;4.73;;
19221;SDS011;9745;50.828;4.378;2023-04-10T09:48:59;7.13;;;4.50;;
19221;SDS011;9745;50.828;4.378;2023-04-10T09:51:32;7.53;;;4.37;;
19221;SDS011;9745;50.828;4.378;2023-04-10T09:53:58;7.20;;;3.93;;
19221;SDS011;9745;50.828;4.378;2023-04-10T09:56:25;7.17;;;3.70;;
19221;SDS011;9745;50.828;4.378;2023-04-10T09:58:55;5.47;;;4.40;;
19221;SDS011;9745;50.828;4.378;2023-04-10T10:01:22;6.23;;;3.50;;
19221;SDS011;9745;50.828;4.378;2023-04-10T10:03:49;6.70;;;4.00;;
19221;SDS011;9745;50.828;4.378;2023-04-10T10:06:15;5.43;;;3.63;;
19221;SDS011;9745;50.828;4.378;2023-04-10T10:08:41;6.33;;;3.83;;
19221;SDS011;9745;50.828;4.378;2023-04-10T10:11:07;7.17;;;4.27;;
19221;SDS011;9745;50.828;4.378;2023-04-10T10:13:37;3.77;;;3.23;;
19221;SDS011;9745;50.828;4.378;2023-04-10T10:19:08;4.57;;;3.50;;
19221;SDS011;9745;50.828;4.378;2023-04-10T10:21:35;5.13;;;3.50;;
19221;SDS011;9745;50.828;4.378;2023-04-10T10:24:02;4.80;;;3.27;;
19221;SDS011;9745;50.828;4.378;2023-04-10T10:26:31;5.17;;;3.40;;
19221;SDS011;9745;50.828;4.378;2023-04-10T10:29:00;4.50;;;3.00;;
19221;SDS011;9745;50.828;4.378;2023-04-10T10:31:27;4.10;;;3.67;;
19221;SDS011;9745;50.828;4.378;2023-04-10T10:33:57;5.57;;;3.07;;
19221;SDS011;9745;50.828;4.378;2023-04-10T10:36:24;4.20;;;3.37;;
19221;SDS011;9745;50.828;4.378;2023-04-10T10:39:01;3.80;;;3.10;;
19221;SDS011;9745;50.828;4.378;2023-04-10T10:41:40;3.57;;;3.00;;
19221;SDS011;9745;50.828;4.378;2023-04-10T10:44:11;3.17;;;2.70;;
19221;SDS011;9745;50.828;4.378;2023-04-10T10:46:43;3.00;;;2.57;;
19221;SDS011;9745;50.828;4.378;2023-04-10T10:49:12;4.33;;;2.43;;
19221;SDS011;9745;50.828;4.378;2023-04-10T10:51:41;4.70;;;2.57;;
19221;SDS011;9745;50.828;4.378;2023-04-10T10:54:27;4.73;;;2.73;;
19221;SDS011;9745;50.828;4.378;2023-04-10T10:56:53;2.77;;;2.43;;
19221;SDS011;9745;50.828;4.378;2023-04-10T11:02:13;2.77;;;2.40;;
19221;SDS011;9745;50.828;4.378;2023-04-10T11:04:49;2.80;;;2.37;;
19221;SDS011;9745;50.828;4.378;2023-04-10T11:07:15;2.83;;;2.43;;
19221;SDS011;9745;50.828;4.378;2023-04-10T11:09:52;3.57;;;2.60;;
19221;SDS011;9745;50.828;4.378;2023-04-10T11:12:22;5.33;;;2.90;;
19221;SDS011;9745;50.828;4.378;2023-04-10T11:20:08;3.67;;;2.63;;
19221;SDS011;9745;50.828;4.378;2023-04-10T11:22:44;6.43;;;2.60;;
19221;SDS011;9745;50.828;4.378;2023-04-10T11:25:20;6.77;;;2.37;;
19221;SDS011;9745;50.828;4.378;2023-04-10T11:27:46;2.90;;;2.30;;
19221;SDS011;9745;50.828;4.378;2023-04-10T11:30:26;5.67;;;2.13;;
19221;SDS011;9745;50.828;4.378;2023-04-10T11:32:53;2.20;;;2.00;;
19221;SDS011;9745;50.828;4.378;2023-04-10T11:35:19;4.57;;;2.20;;
19221;SDS011;9745;50.828;4.378;2023-04-10T11:37:45;3.60;;;2.10;;
19221;SDS011;9745;50.828;4.378;2023-04-10T11:40:11;2.60;;;2.23;;
19221;SDS011;9745;50.828;4.378;2023-04-10T11:42:38;2.30;;;2.10;;
19221;SDS011;9745;50.828;4.378;2023-04-10T11:45:23;3.20;;;2.23;;
19221;SDS011;9745;50.828;4.378;2023-04-10T11:47:52;3.07;;;2.30;;
19221;SDS011;9745;50.828;4.378;2023-04-10T11:50:19;2.77;;;2.43;;
19221;SDS011;9745;50.828;4.378;2023-04-10T11:52:49;3.97;;;2.03;;
19221;SDS011;9745;50.828;4.378;2023-04-10T11:55:15;3.17;;;2.40;;
19221;SDS011;9745;50.828;4.378;2023-04-10T11:57:41;3.27;;;1.83;;
19221;SDS011;9745;50.828;4.378;2023-04-10T12:00:08;2.67;;;2.10;;
19221;SDS011;9745;50.828;4.378;2023-04-10T12:02:34;4.00;;;2.27;;
19221;SDS011;9745;50.828;4.378;2023-04-10T12:05:00;2.87;;;2.00;;
19221;SDS011;9745;50.828;4.378;2023-04-10T12:07:26;2.53;;;2.03;;
19221;SDS011;9745;50.828;4.378;2023-04-10T12:09:59;3.43;;;2.10;;
19221;SDS011;9745;50.828;4.378;2023-04-10T12:12:35;1.63;;;1.50;;
19221;SDS011;9745;50.828;4.378;2023-04-10T12:15:02;2.57;;;1.80;;
19221;SDS011;9745;50.828;4.378;2023-04-10T12:17:28;3.00;;;1.90;;
19221;SDS011;9745;50.828;4.378;2023-04-10T12:19:54;3.60;;;2.20;;
19221;SDS011;9745;50.828;4.378;2023-04-10T12:22:21;2.33;;;2.10;;
19221;SDS011;9745;50.828;4.378;2023-04-10T12:24:48;5.93;;;2.33;;
19221;SDS011;9745;50.828;4.378;2023-04-10T12:27:22;5.73;;;2.00;;
19221;SDS011;9745;50.828;4.378;2023-04-10T12:29:49;2.83;;;1.73;;
19221;SDS011;9745;50.828;4.378;2023-04-10T12:32:16;2.63;;;1.80;;
19221;SDS011;9745;50.828;4.378;2023-04-10T12:34:48;2.33;;;2.00;;
19221;SDS011;9745;50.828;4.378;2023-04-10T12:37:14;2.10;;;1.60;;
19221;SDS011;9745;50.828;4.378;2023-04-10T12:39:40;2.37;;;2.13;;
19221;SDS011;9745;50.828;4.378;2023-04-10T12:42:09;2.27;;;1.77;;
19221;SDS011;9745;50.828;4.378;2023-04-10T12:44:48;2.17;;;1.97;;
19221;SDS011;9745;50.828;4.378;2023-04-10T12:47:14;2.97;;;2.10;;
19221;SDS011;9745;50.828;4.378;2023-04-10T12:49:40;2.50;;;1.80;;
19221;SDS011;9745;50.828;4.378;2023-04-10T12:52:06;3.50;;;2.00;;
19221;SDS011;9745;50.828;4.378;2023-04-10T12:54:33;7.90;;;2.40;;
19221;SDS011;9745;50.828;4.378;2023-04-10T12:57:00;2.13;;;1.93;;
19221;SDS011;9745;50.828;4.378;2023-04-10T12:59:27;3.70;;;2.50;;
19221;SDS011;9745;50.828;4.378;2023-04-10T13:01:53;3.53;;;2.30;;
19221;SDS011;9745;50.828;4.378;2023-04-10T13:04:19;3.87;;;2.37;;
19221;SDS011;9745;50.828;4.378;2023-04-10T13:06:46;4.43;;;2.63;;
19221;SDS011;9745;50.828;4.378;2023-04-10T13:09:12;4.13;;;2.07;;
19221;SDS011;9745;50.828;4.378;2023-04-10T13:11:39;3.33;;;2.13;;
19221;SDS011;9745;50.828;4.378;2023-04-10T13:14:05;2.17;;;1.87;;
19221;SDS011;9745;50.828;4.378;2023-04-10T13:16:31;3.47;;;2.13;;
19221;SDS011;9745;50.828;4.378;2023-04-10T13:18:57;4.10;;;2.30;;
19221;SDS011;9745;50.828;4.378;2023-04-10T13:21:26;5.13;;;1.97;;
19221;SDS011;9745;50.828;4.378;2023-04-10T13:23:55;2.77;;;2.10;;
19221;SDS011;9745;50.828;4.378;2023-04-10T13:26:21;2.67;;;2.00;;
19221;SDS011;9745;50.828;4.378;2023-04-10T13:28:47;2.73;;;1.73;;
19221;SDS011;9745;50.828;4.378;2023-04-10T13:31:13;2.90;;;2.50;;
19221;SDS011;9745;50.828;4.378;2023-04-10T13:33:40;2.43;;;1.97;;
19221;SDS011;9745;50.828;4.378;2023-04-10T13:36:06;4.07;;;2.17;;
19221;SDS011;9745;50.828;4.378;2023-04-10T13:38:32;4.57;;;2.03;;
19221;SDS011;9745;50.828;4.378;2023-04-10T13:40:58;6.03;;;1.80;;
19221;SDS011;9745;50.828;4.378;2023-04-10T13:43:24;3.20;;;1.77;;
19221;SDS011;9745;50.828;4.378;2023-04-10T13:45:50;2.63;;;2.10;;
19221;SDS011;9745;50.828;4.378;2023-04-10T13:48:16;2.53;;;1.93;;
19221;SDS011;9745;50.828;4.378;2023-04-10T13:50:44;4.10;;;2.10;;
19221;SDS011;9745;50.828;4.378;2023-04-10T13:53:10;3.03;;;2.30;;
19221;SDS011;9745;50.828;4.378;2023-04-10T13:55:37;2.80;;;2.37;;
19221;SDS011;9745;50.828;4.378;2023-04-10T13:58:07;4.10;;;2.30;;
19221;SDS011;9745;50.828;4.378;2023-04-10T14:00:33;3.07;;;2.10;;
19221;SDS011;9745;50.828;4.378;2023-04-10T14:02:59;3.13;;;2.00;;
19221;SDS011;9745;50.828;4.378;2023-04-10T14:05:25;3.40;;;2.10;;
19221;SDS011;9745;50.828;4.378;2023-04-10T14:07:51;4.20;;;2.40;;
19221;SDS011;9745;50.828;4.378;2023-04-10T14:10:20;3.40;;;1.90;;
19221;SDS011;9745;50.828;4.378;2023-04-10T14:12:46;4.10;;;2.20;;
19221;SDS011;9745;50.828;4.378;2023-04-10T14:15:12;2.43;;;1.87;;
19221;SDS011;9745;50.828;4.378;2023-04-10T14:17:39;3.07;;;2.30;;
19221;SDS011;9745;50.828;4.378;2023-04-10T14:20:05;7.07;;;2.70;;
19221;SDS011;9745;50.828;4.378;2023-04-10T14:22:32;4.57;;;2.30;;
19221;SDS011;9745;50.828;4.378;2023-04-10T14:24:58;5.70;;;2.03;;
19221;SDS011;9745;50.828;4.378;2023-04-10T14:27:24;5.13;;;2.23;;
19221;SDS011;9745;50.828;4.378;2023-04-10T14:29:50;3.67;;;2.23;;
19221;SDS011;9745;50.828;4.378;2023-04-10T14:32:16;3.00;;;2.10;;
19221;SDS011;9745;50.828;4.378;2023-04-10T14:34:42;3.67;;;2.13;;
19221;SDS011;9745;50.828;4.378;2023-04-10T14:37:08;2.47;;;1.90;;
19221;SDS011;9745;50.828;4.378;2023-04-10T14:39:34;2.27;;;2.07;;
19221;SDS011;9745;50.828;4.378;2023-04-10T14:42:00;6.50;;;2.10;;
19221;SDS011;9745;50.828;4.378;2023-04-10T14:44:27;3.40;;;1.57;;
19221;SDS011;9745;50.828;4.378;2023-04-10T14:46:53;4.17;;;1.93;;
19221;SDS011;9745;50.828;4.378;2023-04-10T14:49:19;5.00;;;1.60;;
19221;SDS011;9745;50.828;4.378;2023-04-10T14:51:45;8.63;;;2.23;;
19221;SDS011;9745;50.828;4.378;2023-04-10T14:54:13;3.33;;;1.90;;
19221;SDS011;9745;50.828;4.378;2023-04-10T14:56:40;5.20;;;2.30;;
19221;SDS011;9745;50.828;4.378;2023-04-10T14:59:06;3.70;;;2.00;;
19221;SDS011;9745;50.828;4.378;2023-04-10T15:01:33;4.90;;;2.47;;
19221;SDS011;9745;50.828;4.378;2023-04-10T15:03:59;5.07;;;2.00;;
19221;SDS011;9745;50.828;4.378;2023-04-10T15:06:25;4.20;;;2.37;;
19221;SDS011;9745;50.828;4.378;2023-04-10T15:08:53;4.40;;;2.73;;
19221;SDS011;9745;50.828;4.378;2023-04-10T15:11:20;3.53;;;2.27;;
19221;SDS011;9745;50.828;4.378;2023-04-10T15:13:46;5.80;;;2.57;;
19221;SDS011;9745;50.828;4.378;2023-04-10T15:16:12;6.13;;;2.33;;
19221;SDS011;9745;50.828;4.378;2023-04-10T15:18:38;3.27;;;2.33;;
19221;SDS011;9745;50.828;4.378;2023-04-10T15:21:04;4.33;;;2.30;;
19221;SDS011;9745;50.828;4.378;2023-04-10T15:23:30;5.27;;;2.53;;
19221;SDS011;9745;50.828;4.378;2023-04-10T15:25:56;4.90;;;2.30;;
19221;SDS011;9745;50.828;4.378;2023-04-10T15:28:22;6.60;;;2.80;;